Time;durP1;ratioP1;P1;durP2;ratioP2;P2;SDS_P1;SDS_P2;PMS_P1;PMS_P2;Temp;Humidity;BMP_temperature;BMP_pressure;BME280_temperature;BME280_humidity;BME280_pressure;Samples;Min_cycle;Max_cycle;Signal;HPM_P1;HPM_P2
2021/05/07 00:01:44;;;;;;;2.97;1.50;;;14.90;74.00;;;;;;5094647;28;20190;-74
2021/05/07 00:04:10;;;;;;;1.48;1.38;;;14.90;74.40;;;;;;5092894;28;20221;-74
2021/05/07 00:06:35;;;;;;;1.30;1.23;;;14.90;73.80;;;;;;5100911;28;20213;-74
2021/05/07 00:09:05;;;;;;;1.50;1.40;;;14.80;73.90;;;;;;5099138;28;20182;-73
2021/05/07 00:11:33;;;;;;;2.15;1.58;;;14.80;73.70;;;;;;5092763;28;20253;-73
2021/05/07 00:13:58;;;;;;;1.55;1.45;;;14.70;73.90;;;;;;5068959;28;699790;-74
2021/05/07 00:16:25;;;;;;;1.55;1.35;;;14.60;74.50;;;;;;5099141;28;20191;-74
2021/05/07 00:18:50;;;;;;;3.08;1.80;;;14.50;74.40;;;;;;5100881;28;20646;-73
2021/05/07 00:21:16;;;;;;;1.80;1.70;;;14.50;74.80;;;;;;5089177;28;20185;-74
2021/05/07 00:23:42;;;;;;;2.40;1.67;;;14.50;74.60;;;;;;5102059;28;20217;-74
2021/05/07 00:26:07;;;;;;;1.30;1.30;;;14.40;75.20;;;;;;5101596;28;20186;-74
2021/05/07 00:28:35;;;;;;;1.40;1.30;;;14.30;74.80;;;;;;5098655;28;20182;-73
2021/05/07 00:31:01;;;;;;;1.33;1.33;;;14.30;75.10;;;;;;5099513;28;20180;-74
2021/05/07 00:33:26;;;;;;;2.15;1.40;;;14.30;75.30;;;;;;5101038;28;20186;-73
2021/05/07 00:35:52;;;;;;;2.38;1.35;;;14.30;75.30;;;;;;5101194;28;20189;-73
2021/05/07 00:38:18;;;;;;;1.75;1.38;;;14.30;75.20;;;;;;5102407;28;20193;-74
2021/05/07 00:40:44;;;;;;;2.38;1.48;;;14.20;75.30;;;;;;5096693;28;20658;-73
2021/05/07 00:43:10;;;;;;;1.73;1.27;;;14.20;75.00;;;;;;5094882;28;20214;-74
2021/05/07 00:45:37;;;;;;;1.52;1.52;;;14.10;75.50;;;;;;5098862;28;20182;-73
2021/05/07 00:48:04;;;;;;;2.03;1.83;;;14.10;76.10;;;;;;5100354;28;20254;-74
2021/05/07 00:50:32;;;;;;;3.78;1.35;;;14.00;76.80;;;;;;5097111;28;20205;-74
2021/05/07 00:52:59;;;;;;;1.48;1.48;;;14.00;76.30;;;;;;5100483;28;20611;-73
2021/05/07 00:55:29;;;;;;;2.83;1.65;;;14.00;76.70;;;;;;5099981;28;20189;-74
2021/05/07 00:57:55;;;;;;;3.00;2.80;;;13.90;77.60;;;;;;5100823;28;20178;-73
2021/05/07 01:00:23;;;;;;;5.90;2.92;;;13.90;77.00;;;;;;5091410;28;20193;-73
2021/05/07 01:02:48;;;;;;;2.20;2.00;;;13.90;77.10;;;;;;5100097;28;20217;-74
2021/05/07 01:05:14;;;;;;;2.20;2.00;;;13.80;77.10;;;;;;5098507;28;20666;-74
2021/05/07 01:07:40;;;;;;;1.38;1.38;;;13.80;78.60;;;;;;5097435;28;20186;-74
2021/05/07 01:10:09;;;;;;;1.30;1.30;;;13.70;77.80;;;;;;5089212;28;20235;-73
2021/05/07 01:12:39;;;;;;;1.30;1.30;;;13.70;77.90;;;;;;5099411;28;20272;-73
2021/05/07 01:15:10;;;;;;;1.15;1.05;;;13.70;76.80;;;;;;5096952;28;20689;-74
2021/05/07 01:17:46;;;;;;;2.08;1.20;;;13.60;77.40;;;;;;5087011;28;20841;-74
2021/05/07 01:20:23;;;;;;;1.52;1.42;;;13.60;77.30;;;;;;5095085;28;20188;-74
2021/05/07 01:23:08;;;;;;;1.45;1.38;;;13.50;77.90;;;;;;5104199;28;20288;-74
2021/05/07 01:25:43;;;;;;;5.25;1.40;;;13.50;78.00;;;;;;5101520;28;20190;-74
2021/05/07 01:28:11;;;;;;;1.98;1.88;;;13.50;78.60;;;;;;5099557;28;20182;-74
2021/05/07 01:30:39;;;;;;;1.40;1.40;;;13.50;78.20;;;;;;5099291;28;20178;-74
2021/05/07 01:33:06;;;;;;;1.52;1.38;;;13.40;78.60;;;;;;5100954;28;20185;-73
2021/05/07 01:35:35;;;;;;;2.97;1.13;;;13.40;79.00;;;;;;5101534;28;20235;-73
2021/05/07 01:38:04;;;;;;;1.70;1.05;;;13.40;78.30;;;;;;5095407;28;20182;-73
2021/05/07 01:40:34;;;;;;;1.30;1.30;;;13.30;78.30;;;;;;5096840;28;20212;-74
2021/05/07 01:43:01;;;;;;;2.20;1.80;;;13.30;79.60;;;;;;5103597;28;20219;-73
2021/05/07 01:45:29;;;;;;;1.25;1.15;;;13.20;78.90;;;;;;5102776;28;20181;-73
2021/05/07 01:47:55;;;;;;;1.40;1.40;;;13.20;78.60;;;;;;5104020;28;20632;-74
2021/05/07 01:50:26;;;;;;;1.52;1.42;;;13.20;78.80;;;;;;5098887;28;20255;-74
2021/05/07 01:52:55;;;;;;;1.10;1.10;;;13.10;78.80;;;;;;5099639;28;20182;-74
2021/05/07 01:55:26;;;;;;;1.20;1.20;;;13.10;78.80;;;;;;5103505;28;20608;-74
2021/05/07 01:57:52;;;;;;;0.98;0.98;;;13.00;79.00;;;;;;5099239;28;20190;-74
2021/05/07 02:00:22;;;;;;;0.88;0.88;;;13.00;79.00;;;;;;5098140;28;20188;-74
2021/05/07 02:02:48;;;;;;;2.33;1.52;;;13.00;78.80;;;;;;5096374;28;20209;-74
2021/05/07 02:05:15;;;;;;;1.25;1.25;;;13.00;79.30;;;;;;5101163;28;20573;-75
2021/05/07 02:07:44;;;;;;;1.60;1.50;;;13.00;79.10;;;;;;5102186;28;20238;-74
2021/05/07 02:10:12;;;;;;;1.50;1.45;;;13.00;79.50;;;;;;5097981;28;20216;-74
2021/05/07 02:12:39;;;;;;;1.40;1.30;;;12.90;79.20;;;;;;5101305;28;20566;-72
2021/05/07 02:15:07;;;;;;;2.47;1.10;;;12.90;79.90;;;;;;5099899;28;20220;-73
2021/05/07 02:17:33;;;;;;;0.95;0.95;;;12.80;79.50;;;;;;5097638;28;20174;-73
2021/05/07 02:19:58;;;;;;;0.88;0.88;;;12.80;79.50;;;;;;5098202;28;20179;-73
2021/05/07 02:22:25;;;;;;;1.42;0.90;;;12.80;79.20;;;;;;5098684;28;20620;-73
2021/05/07 02:24:51;;;;;;;1.02;1.02;;;12.80;79.20;;;;;;5103622;28;20271;-73
2021/05/07 02:27:16;;;;;;;1.58;1.10;;;12.80;79.40;;;;;;5099291;28;20250;-73
2021/05/07 02:29:48;;;;;;;1.27;1.20;;;12.80;79.20;;;;;;5101336;28;20200;-74
2021/05/07 02:32:13;;;;;;;2.55;1.15;;;12.80;79.60;;;;;;5101551;28;20181;-74
2021/05/07 02:34:39;;;;;;;1.13;1.13;;;12.70;79.70;;;;;;5101483;28;20197;-74
2021/05/07 02:37:05;;;;;;;1.98;1.20;;;12.70;79.80;;;;;;5098301;28;20206;-74
2021/05/07 02:39:31;;;;;;;1.48;1.48;;;12.70;80.20;;;;;;5097794;28;20223;-74
2021/05/07 02:41:56;;;;;;;1.40;1.30;;;12.70;81.50;;;;;;5106618;28;20186;-74
2021/05/07 02:44:22;;;;;;;1.23;1.23;;;12.70;80.60;;;;;;5103147;28;20178;-74
2021/05/07 02:46:48;;;;;;;2.13;2.03;;;12.70;80.30;;;;;;5104253;28;20277;-74
2021/05/07 02:49:13;;;;;;;1.70;1.60;;;12.60;80.40;;;;;;5102582;28;20202;-74
2021/05/07 02:51:40;;;;;;;1.15;1.13;;;12.60;80.60;;;;;;5103342;28;20813;-73
2021/05/07 02:54:06;;;;;;;7.57;1.30;;;12.60;80.30;;;;;;5103911;28;20205;-73
2021/05/07 02:56:31;;;;;;;1.65;1.55;;;12.60;80.10;;;;;;5104117;28;20264;-73
2021/05/07 02:58:57;;;;;;;1.33;1.33;;;12.50;81.10;;;;;;5104330;28;20182;-73
2021/05/07 03:01:23;;;;;;;1.50;1.40;;;12.50;80.70;;;;;;5098339;28;20260;-73
2021/05/07 03:03:50;;;;;;;3.88;1.40;;;12.50;80.50;;;;;;5092270;28;20202;-73
2021/05/07 03:06:16;;;;;;;1.52;1.52;;;12.50;80.70;;;;;;5098698;28;20204;-73
2021/05/07 03:08:41;;;;;;;1.38;1.27;;;12.40;80.60;;;;;;5099818;28;20187;-73
2021/05/07 03:11:08;;;;;;;1.30;1.30;;;12.40;80.60;;;;;;5106693;28;20181;-73
2021/05/07 03:13:33;;;;;;;1.60;1.60;;;12.40;80.80;;;;;;5099982;28;20189;-73
2021/05/07 03:15:59;;;;;;;1.50;1.40;;;12.40;80.90;;;;;;5100790;28;20178;-73
2021/05/07 03:18:28;;;;;;;1.52;1.42;;;12.40;81.00;;;;;;5084507;28;20663;-73
2021/05/07 03:20:54;;;;;;;1.23;1.23;;;12.30;80.90;;;;;;5102109;28;20238;-73
2021/05/07 03:23:20;;;;;;;1.40;1.30;;;12.30;81.30;;;;;;5099758;28;20215;-73
2021/05/07 03:25:46;;;;;;;1.33;1.25;;;12.30;81.50;;;;;;5099040;28;20224;-73
2021/05/07 03:28:12;;;;;;;1.50;1.30;;;12.30;81.60;;;;;;5101865;28;20694;-74
2021/05/07 03:30:38;;;;;;;1.08;1.08;;;12.30;81.60;;;;;;5095436;28;20177;-73
2021/05/07 03:33:05;;;;;;;1.85;1.00;;;12.40;81.70;;;;;;5102403;28;20181;-73
2021/05/07 03:35:32;;;;;;;1.20;1.17;;;12.40;81.80;;;;;;5100556;28;20256;-73
2021/05/07 03:37:59;;;;;;;2.47;1.70;;;12.40;81.70;;;;;;5101236;28;20178;-73
2021/05/07 03:40:25;;;;;;;1.73;1.63;;;12.40;81.50;;;;;;5103014;28;20181;-73
2021/05/07 03:42:50;;;;;;;2.03;1.55;;;12.40;81.80;;;;;;5098994;28;20202;-73
2021/05/07 03:45:17;;;;;;;3.53;1.38;;;12.50;81.80;;;;;;5099397;28;20663;-73
2021/05/07 03:47:43;;;;;;;1.30;1.30;;;12.50;81.80;;;;;;5101528;28;20698;-73
2021/05/07 03:50:10;;;;;;;1.27;1.27;;;12.60;81.90;;;;;;5102803;28;20253;-73
2021/05/07 03:52:36;;;;;;;1.48;1.48;;;12.60;82.00;;;;;;5101130;28;20193;-74
2021/05/07 03:55:04;;;;;;;2.58;1.80;;;12.60;82.20;;;;;;5100441;28;20193;-73
2021/05/07 03:57:30;;;;;;;1.30;1.30;;;12.60;82.20;;;;;;5096922;28;20251;-73
2021/05/07 03:59:56;;;;;;;1.67;1.58;;;12.70;82.30;;;;;;5102509;28;20173;-74
2021/05/07 04:02:23;;;;;;;1.50;1.50;;;12.70;82.10;;;;;;5101484;28;20258;-73
2021/05/07 04:04:49;;;;;;;2.90;2.05;;;12.70;82.30;;;;;;5092962;28;20182;-73
2021/05/07 04:07:16;;;;;;;2.67;2.03;;;12.80;82.10;;;;;;5098988;28;20202;-73
2021/05/07 04:09:47;;;;;;;2.00;1.63;;;12.80;82.30;;;;;;5095978;28;20793;-74
2021/05/07 04:14:41;;;;;;;1.73;1.58;;;12.90;82.20;;;;;;5097158;28;20194;-74
2021/05/07 04:17:07;;;;;;;3.17;2.00;;;12.90;82.00;;;;;;5101565;28;20205;-73
2021/05/07 04:19:32;;;;;;;2.25;2.05;;;12.90;82.10;;;;;;5092106;28;20250;-74
2021/05/07 04:21:58;;;;;;;2.00;1.90;;;13.00;82.30;;;;;;5099745;28;20792;-73
2021/05/07 04:24:24;;;;;;;3.03;1.70;;;13.00;82.40;;;;;;5080724;28;20190;-73
2021/05/07 04:26:50;;;;;;;2.95;2.33;;;13.00;82.50;;;;;;5095692;28;20171;-74
2021/05/07 04:29:15;;;;;;;2.35;2.13;;;13.00;82.30;;;;;;5098390;28;20186;-74
2021/05/07 04:31:41;;;;;;;2.80;1.77;;;13.10;82.20;;;;;;5099947;28;20193;-73
2021/05/07 04:34:07;;;;;;;4.30;2.08;;;13.10;82.00;;;;;;5098621;28;20197;-73
2021/05/07 04:36:33;;;;;;;1.95;1.85;;;13.10;82.20;;;;;;5095386;28;20270;-74
2021/05/07 04:38:59;;;;;;;2.05;1.95;;;13.20;81.90;;;;;;5096072;28;20268;-73
2021/05/07 04:41:25;;;;;;;1.75;1.65;;;13.20;82.40;;;;;;5095306;28;20174;-74
2021/05/07 04:43:51;;;;;;;4.82;1.75;;;13.30;82.10;;;;;;5096623;28;20202;-73
2021/05/07 04:46:17;;;;;;;2.50;2.10;;;13.30;82.50;;;;;;5095653;28;20191;-73
2021/05/07 04:48:42;;;;;;;2.45;2.25;;;13.40;82.40;;;;;;5095834;28;20260;-74
2021/05/07 04:51:08;;;;;;;3.63;1.77;;;13.40;82.00;;;;;;5099920;28;20186;-73
2021/05/07 04:53:34;;;;;;;1.70;1.70;;;13.40;81.40;;;;;;5076738;28;20705;-73
2021/05/07 04:55:59;;;;;;;2.30;1.80;;;13.50;81.10;;;;;;5096705;28;20182;-73
2021/05/07 04:58:25;;;;;;;2.03;1.88;;;13.50;81.00;;;;;;5095580;28;20216;-73
2021/05/07 05:00:51;;;;;;;1.95;1.85;;;13.60;80.60;;;;;;5096121;28;20189;-74
2021/05/07 05:03:17;;;;;;;1.77;1.67;;;13.60;80.00;;;;;;5096390;28;20875;-74
2021/05/07 05:05:43;;;;;;;2.03;1.85;;;13.70;80.00;;;;;;5074285;28;20195;-74
2021/05/07 05:08:08;;;;;;;1.92;1.90;;;13.70;79.70;;;;;;5095481;28;20181;-73
2021/05/07 05:10:34;;;;;;;2.10;2.00;;;13.80;79.40;;;;;;5091592;28;20563;-73
2021/05/07 05:12:59;;;;;;;7.18;2.05;;;13.90;79.20;;;;;;5092274;28;20628;-72
2021/05/07 05:15:26;;;;;;;2.17;2.00;;;13.90;79.20;;;;;;5100866;28;20701;-73
2021/05/07 05:17:51;;;;;;;2.30;2.08;;;14.00;78.90;;;;;;5095478;28;20725;-72
2021/05/07 05:20:17;;;;;;;2.47;2.08;;;14.10;78.70;;;;;;5100590;28;20178;-72
2021/05/07 05:22:43;;;;;;;2.65;1.77;;;14.20;78.60;;;;;;5095962;28;20210;-72
2021/05/07 05:25:10;;;;;;;2.22;2.13;;;14.30;78.40;;;;;;5094538;28;20190;-74
2021/05/07 05:27:36;;;;;;;2.33;2.22;;;14.40;78.30;;;;;;5079191;28;20546;-73
2021/05/07 05:30:04;;;;;;;4.25;2.60;;;14.50;78.20;;;;;;5099878;28;20255;-73
2021/05/07 05:32:31;;;;;;;3.10;2.22;;;14.70;78.10;;;;;;5098235;28;20667;-74
2021/05/07 05:34:57;;;;;;;2.55;2.35;;;14.80;77.80;;;;;;5112311;27;20191;-75
2021/05/07 05:37:24;;;;;;;3.13;1.92;;;14.90;77.90;;;;;;5096912;28;20816;-72
2021/05/07 05:39:50;;;;;;;1.75;1.55;;;15.00;77.80;;;;;;5097614;28;20186;-72
2021/05/07 05:42:16;;;;;;;2.60;2.30;;;15.10;77.50;;;;;;5097380;28;20743;-73
2021/05/07 05:44:42;;;;;;;2.28;1.60;;;15.30;77.40;;;;;;5096337;28;20246;-73
2021/05/07 05:47:07;;;;;;;1.85;1.85;;;15.40;76.80;;;;;;5099231;28;20182;-73
2021/05/07 05:49:33;;;;;;;1.98;1.65;;;15.50;76.50;;;;;;5072442;28;20192;-74
2021/05/07 05:51:59;;;;;;;4.30;2.00;;;15.60;76.30;;;;;;5094885;28;20182;-73
2021/05/07 05:54:24;;;;;;;1.90;1.80;;;15.70;76.20;;;;;;5097236;28;20212;-73
2021/05/07 05:56:50;;;;;;;3.08;1.85;;;15.70;75.90;;;;;;5105405;28;20330;-73
2021/05/07 05:59:16;;;;;;;1.63;1.52;;;15.80;74.90;;;;;;5104201;28;20184;-73
2021/05/07 06:01:41;;;;;;;2.17;2.03;;;15.70;74.30;;;;;;5100827;28;20578;-73
2021/05/07 06:04:07;;;;;;;1.40;1.35;;;15.90;74.50;;;;;;5094314;28;20649;-72
2021/05/07 06:06:33;;;;;;;5.40;2.15;;;16.00;74.30;;;;;;5095794;28;20186;-73
2021/05/07 06:08:58;;;;;;;1.77;1.67;;;16.10;74.10;;;;;;5099202;28;20188;-74
2021/05/07 06:11:24;;;;;;;1.90;1.80;;;16.20;74.30;;;;;;5100944;28;20266;-73
2021/05/07 06:13:50;;;;;;;1.75;1.65;;;16.30;74.00;;;;;;5097907;28;20189;-72
2021/05/07 06:16:15;;;;;;;3.35;2.05;;;16.40;73.80;;;;;;5102423;28;20178;-73
2021/05/07 06:18:41;;;;;;;1.60;1.50;;;16.50;73.50;;;;;;5094967;28;20182;-73
2021/05/07 06:21:07;;;;;;;1.88;1.77;;;16.70;73.20;;;;;;5100551;28;20178;-73
2021/05/07 06:23:32;;;;;;;2.17;1.63;;;16.80;72.90;;;;;;5104341;28;20201;-72
2021/05/07 06:25:59;;;;;;;4.07;2.10;;;16.90;72.80;;;;;;5104226;28;20188;-73
2021/05/07 06:28:25;;;;;;;1.70;1.42;;;17.00;72.10;;;;;;5102991;28;20174;-73
2021/05/07 06:30:55;;;;;;;1.98;1.88;;;17.10;71.80;;;;;;5103189;28;20182;-74
2021/05/07 06:33:21;;;;;;;1.90;1.80;;;17.10;71.20;;;;;;5101772;28;20234;-74
2021/05/07 06:35:47;;;;;;;1.98;1.80;;;17.20;71.20;;;;;;5104774;28;20177;-74
2021/05/07 06:38:12;;;;;;;5.30;1.80;;;17.20;71.10;;;;;;5100936;28;20260;-73
2021/05/07 06:40:38;;;;;;;2.15;1.30;;;17.30;70.60;;;;;;5103372;28;20210;-74
2021/05/07 06:43:05;;;;;;;3.08;1.63;;;17.40;71.00;;;;;;5081573;28;20719;-74
2021/05/07 06:45:30;;;;;;;1.50;1.40;;;17.50;71.30;;;;;;5105340;28;20181;-73
2021/05/07 06:47:56;;;;;;;1.52;1.42;;;17.60;72.50;;;;;;5101848;28;20190;-72
2021/05/07 06:50:22;;;;;;;4.00;2.00;;;17.70;71.30;;;;;;5103039;28;20184;-73
2021/05/07 06:52:48;;;;;;;1.45;1.35;;;17.80;71.50;;;;;;5101963;28;20179;-73
2021/05/07 06:55:14;;;;;;;2.90;1.58;;;17.90;71.30;;;;;;5100842;28;20666;-73
2021/05/07 06:57:40;;;;;;;1.35;1.35;;;18.00;70.10;;;;;;5094244;28;20741;-73
2021/05/07 07:00:08;;;;;;;4.05;1.30;;;18.10;68.90;;;;;;5092871;28;20186;-73
2021/05/07 07:02:34;;;;;;;1.45;1.35;;;18.10;68.40;;;;;;5087725;28;20267;-73
2021/05/07 07:05:00;;;;;;;1.75;1.70;;;18.10;67.60;;;;;;5093476;28;20218;-74
2021/05/07 07:07:27;;;;;;;1.85;1.50;;;18.10;68.00;;;;;;5089687;28;20177;-73
2021/05/07 07:09:53;;;;;;;1.17;1.10;;;18.10;68.30;;;;;;5089549;28;20173;-72
2021/05/07 07:12:19;;;;;;;1.70;1.20;;;18.00;66.90;;;;;;5073683;28;20581;-74
2021/05/07 07:14:45;;;;;;;2.22;1.13;;;18.00;67.50;;;;;;5097147;28;20209;-73
2021/05/07 07:17:11;;;;;;;1.83;1.80;;;18.00;67.60;;;;;;5100140;28;20181;-73
2021/05/07 07:19:37;;;;;;;2.83;1.75;;;18.10;68.00;;;;;;5096276;28;20182;-73
2021/05/07 07:22:04;;;;;;;1.45;1.45;;;18.20;68.50;;;;;;5098996;28;20185;-72
2021/05/07 07:24:30;;;;;;;2.25;1.58;;;18.20;68.70;;;;;;5099393;28;20664;-73
2021/05/07 07:26:56;;;;;;;8.55;1.45;;;18.30;68.40;;;;;;5102836;28;20252;-74
2021/05/07 07:29:22;;;;;;;3.88;1.48;;;18.30;68.20;;;;;;5095391;28;20952;-72
2021/05/07 07:31:50;;;;;;;1.23;1.20;;;18.40;68.50;;;;;;5076519;28;20188;-72
2021/05/07 07:34:16;;;;;;;2.33;1.50;;;18.40;68.30;;;;;;5098034;28;20186;-72
2021/05/07 07:36:42;;;;;;;4.22;1.48;;;18.50;68.30;;;;;;5093125;28;20193;-72
2021/05/07 07:39:07;;;;;;;1.80;1.40;;;18.60;68.40;;;;;;5098998;28;20273;-74
2021/05/07 07:41:33;;;;;;;1.25;1.20;;;18.60;68.60;;;;;;5092579;28;20182;-74
2021/05/07 07:44:18;;;;;;;6.15;1.60;;;18.60;68.40;;;;;;5096198;28;20291;-72
2021/05/07 07:46:44;;;;;;;1.20;1.20;;;18.70;68.50;;;;;;5090574;28;20185;-71
2021/05/07 07:49:10;;;;;;;5.55;1.65;;;18.80;68.40;;;;;;5095974;28;20194;-74
2021/05/07 07:51:36;;;;;;;1.77;1.35;;;18.90;68.50;;;;;;5091282;28;20198;-74
2021/05/07 07:54:07;;;;;;;3.03;1.58;;;19.00;68.60;;;;;;5092445;28;20189;-74
2021/05/07 07:56:33;;;;;;;6.00;1.83;;;19.20;68.40;;;;;;5094826;28;20231;-73
2021/05/07 07:58:59;;;;;;;1.88;1.65;;;19.30;68.30;;;;;;5094493;28;20182;-74
2021/05/07 08:01:25;;;;;;;2.25;1.88;;;19.50;67.50;;;;;;5099710;28;20206;-74
2021/05/07 08:03:50;;;;;;;6.90;1.55;;;19.60;67.20;;;;;;5099942;28;20205;-73
2021/05/07 08:06:16;;;;;;;5.55;1.65;;;19.80;67.10;;;;;;5102400;28;20191;-73
2021/05/07 08:08:42;;;;;;;2.92;1.05;;;20.00;66.60;;;;;;5092393;28;20276;-73
2021/05/07 08:11:08;;;;;;;2.90;1.08;;;20.10;66.50;;;;;;5071223;28;20655;-73
2021/05/07 08:13:34;;;;;;;2.55;1.50;;;20.20;66.10;;;;;;5092342;28;20633;-73
2021/05/07 08:15:59;;;;;;;7.00;1.67;;;20.30;65.40;;;;;;5092543;28;20690;-72
2021/05/07 08:18:25;;;;;;;1.70;1.63;;;20.50;65.50;;;;;;5087734;28;20294;-72
2021/05/07 08:20:51;;;;;;;1.88;1.77;;;20.60;66.10;;;;;;5090857;28;20178;-73
2021/05/07 08:23:17;;;;;;;3.60;1.50;;;20.70;63.80;;;;;;5095204;28;20209;-73
2021/05/07 08:25:42;;;;;;;1.52;1.52;;;20.80;64.60;;;;;;5097128;28;20193;-71
2021/05/07 08:28:08;;;;;;;2.80;1.40;;;20.90;64.50;;;;;;5094908;28;20177;-73
2021/05/07 08:30:34;;;;;;;1.95;1.70;;;21.00;64.40;;;;;;5089936;28;20189;-72
2021/05/07 08:32:59;;;;;;;1.73;1.73;;;21.20;63.70;;;;;;5094452;28;20189;-74
2021/05/07 08:35:25;;;;;;;1.90;1.90;;;21.40;63.60;;;;;;5094905;28;20239;-72
2021/05/07 08:37:52;;;;;;;6.28;1.60;;;21.50;63.70;;;;;;5093996;28;20836;-73
2021/05/07 08:40:18;;;;;;;3.42;1.77;;;21.70;63.00;;;;;;5098765;28;20205;-72
2021/05/07 08:42:44;;;;;;;3.22;1.58;;;22.00;63.20;;;;;;5095769;28;20233;-73
2021/05/07 08:45:29;;;;;;;2.58;1.70;;;22.10;62.60;;;;;;5094006;28;20178;-75
2021/05/07 08:47:55;;;;;;;3.88;1.67;;;22.30;62.10;;;;;;5099680;28;20693;-73
2021/05/07 08:50:21;;;;;;;1.92;1.83;;;22.50;61.50;;;;;;5097072;28;20182;-72
2021/05/07 08:52:47;;;;;;;2.85;1.63;;;22.60;62.10;;;;;;5101557;28;20190;-71
2021/05/07 08:57:57;;;;;;;4.00;1.70;;;22.90;62.40;;;;;;5096762;28;20696;-71
2021/05/07 09:00:23;;;;;;;1.73;1.70;;;23.00;61.80;;;;;;5101715;28;20181;-71
2021/05/07 09:02:49;;;;;;;1.92;1.60;;;23.20;61.30;;;;;;5100725;28;20232;-71
2021/05/07 09:05:14;;;;;;;2.05;1.85;;;23.40;60.50;;;;;;5076053;28;20238;-71
2021/05/07 09:07:53;;;;;;;1.52;1.25;;;23.50;60.60;;;;;;5092694;28;20211;-70
2021/05/07 09:10:29;;;;;;;3.55;1.70;;;23.60;60.30;;;;;;5099065;28;20192;-72
2021/05/07 09:12:55;;;;;;;1.73;1.63;;;23.80;60.40;;;;;;5099988;28;20188;-71
2021/05/07 09:15:22;;;;;;;1.63;1.52;;;24.00;59.50;;;;;;5097774;28;20195;-71
2021/05/07 09:17:48;;;;;;;1.15;1.15;;;24.20;59.60;;;;;;5093372;28;20550;-71
2021/05/07 09:20:14;;;;;;;1.88;1.42;;;24.40;58.80;;;;;;5093079;28;20184;-71
2021/05/07 09:22:41;;;;;;;5.63;1.45;;;24.60;58.40;;;;;;5097360;28;20209;-70
2021/05/07 09:25:15;;;;;;;2.80;1.33;;;24.70;56.00;;;;;;5097576;28;20178;-70
2021/05/07 09:27:41;;;;;;;2.35;1.30;;;24.60;55.90;;;;;;5093717;28;20181;-71
2021/05/07 09:30:20;;;;;;;4.28;1.08;;;24.70;58.00;;;;;;5095390;28;20186;-71
2021/05/07 09:32:50;;;;;;;1.02;1.02;;;24.70;57.20;;;;;;5093529;28;20759;-70
2021/05/07 09:35:16;;;;;;;2.97;1.90;;;24.80;55.50;;;;;;5090944;28;20237;-71
2021/05/07 09:37:45;;;;;;;1.17;1.17;;;24.80;55.90;;;;;;5097672;28;20182;-70
2021/05/07 09:40:12;;;;;;;1.08;0.90;;;24.90;54.30;;;;;;5075737;28;20230;-72
2021/05/07 09:42:38;;;;;;;0.95;0.80;;;25.20;52.80;;;;;;5096019;28;20206;-70
2021/05/07 09:45:04;;;;;;;1.13;1.02;;;25.50;53.10;;;;;;5095265;28;20251;-72
2021/05/07 09:47:31;;;;;;;2.92;1.00;;;26.00;52.60;;;;;;5094414;28;20260;-71
2021/05/07 09:50:07;;;;;;;5.00;1.05;;;26.40;52.90;;;;;;5099458;28;20272;-72
2021/05/07 09:52:37;;;;;;;0.70;0.50;;;26.60;50.60;;;;;;5089855;28;20197;-70
2021/05/07 09:55:09;;;;;;;5.28;0.50;;;26.80;48.40;;;;;;5071405;28;20175;-72
2021/05/07 09:57:35;;;;;;;3.67;0.45;;;27.10;47.10;;;;;;5077917;28;20186;-71
2021/05/07 10:00:03;;;;;;;0.80;0.60;;;27.70;47.20;;;;;;5104664;28;20268;-72
2021/05/07 10:02:30;;;;;;;3.80;0.70;;;28.20;47.50;;;;;;5097292;28;20649;-70
2021/05/07 10:04:58;;;;;;;3.60;0.80;;;28.60;47.20;;;;;;5078185;28;20277;-71
2021/05/07 10:07:23;;;;;;;0.60;0.60;;;28.80;48.50;;;;;;5095307;28;20249;-71
2021/05/07 10:09:49;;;;;;;0.60;0.60;;;28.70;49.10;;;;;;5089388;28;20189;-70
2021/05/07 10:12:17;;;;;;;1.02;0.90;;;28.30;47.60;;;;;;5094082;28;20681;-71
2021/05/07 10:14:46;;;;;;;1.25;0.68;;;27.90;48.20;;;;;;5096001;28;20743;-71
2021/05/07 10:17:13;;;;;;;1.38;0.70;;;27.70;49.10;;;;;;5099458;28;20292;-71
2021/05/07 10:19:45;;;;;;;3.25;1.00;;;27.80;48.40;;;;;;5095275;28;20540;-70
2021/05/07 10:22:11;;;;;;;0.90;0.90;;;28.10;48.50;;;;;;5092806;28;20272;-70
2021/05/07 10:24:38;;;;;;;0.52;0.52;;;28.30;48.90;;;;;;5091617;28;20186;-70
2021/05/07 10:27:43;;;;;;;0.57;0.57;;;28.40;46.70;;;;;;5094456;28;20184;-71
2021/05/07 10:30:09;;;;;;;0.80;0.80;;;28.90;46.70;;;;;;5014616;28;20192;-70
2021/05/07 10:32:37;;;;;;;2.00;0.80;;;29.40;47.40;;;;;;5016444;28;20644;-69
2021/05/07 10:35:04;;;;;;;1.58;0.73;;;30.20;45.90;;;;;;4988805;28;20626;-69
2021/05/07 10:37:42;;;;;;;0.75;0.60;;;30.80;44.60;;;;;;5009744;28;20185;-70
2021/05/07 10:40:09;;;;;;;1.85;0.60;;;30.90;43.80;;;;;;5002946;28;20193;-71
2021/05/07 10:42:36;;;;;;;0.85;0.40;;;30.70;43.10;;;;;;5000519;28;20210;-71
2021/05/07 10:45:04;;;;;;;0.47;0.40;;;30.20;42.50;;;;;;5014474;28;20188;-72
2021/05/07 10:47:36;;;;;;;1.25;0.47;;;30.10;43.70;;;;;;5012937;28;20201;-71
2021/05/07 10:50:16;;;;;;;0.52;0.40;;;30.20;44.60;;;;;;5011546;28;20197;-70
2021/05/07 10:52:42;;;;;;;0.40;0.40;;;30.40;44.20;;;;;;5009298;28;20207;-69
2021/05/07 10:55:08;;;;;;;0.85;0.50;;;30.50;44.20;;;;;;5016086;28;20666;-70
2021/05/07 10:57:53;;;;;;;0.57;0.40;;;30.60;45.00;;;;;;5011031;28;20699;-71
2021/05/07 11:00:19;;;;;;;0.40;0.40;;;30.50;44.00;;;;;;5018164;28;20695;-70
2021/05/07 11:02:51;;;;;;;8.55;0.70;;;30.20;43.90;;;;;;5014475;28;20219;-70
2021/05/07 11:05:47;;;;;;;0.43;0.43;;;29.90;43.80;;;;;;5020022;28;20192;-69
2021/05/07 11:08:13;;;;;;;0.40;0.40;;;29.60;44.10;;;;;;5096408;28;20281;-71
2021/05/07 11:10:39;;;;;;;0.73;0.70;;;29.10;43.30;;;;;;5095027;28;20192;-72
2021/05/07 11:13:06;;;;;;;2.58;0.50;;;29.20;45.40;;;;;;5094659;28;20190;-70
2021/05/07 11:15:32;;;;;;;0.35;0.35;;;29.40;44.60;;;;;;5100039;28;20177;-70
2021/05/07 11:18:09;;;;;;;2.25;0.60;;;29.60;42.60;;;;;;5103680;28;20189;-71
2021/05/07 11:20:39;;;;;;;1.25;0.47;;;30.10;43.30;;;;;;5099542;28;20659;-71
2021/05/07 11:23:09;;;;;;;3.92;0.47;;;30.60;43.80;;;;;;5097497;28;20205;-71
2021/05/07 11:25:34;;;;;;;0.93;0.50;;;31.20;42.50;;;;;;5101349;28;20204;-71
2021/05/07 11:28:18;;;;;;;0.40;0.40;;;31.90;42.00;;;;;;5097066;28;20574;-70
2021/05/07 11:30:55;;;;;;;0.90;0.30;;;32.60;41.60;;;;;;5099120;28;20178;-71
2021/05/07 11:33:24;;;;;;;0.90;0.50;;;33.50;41.30;;;;;;5097675;28;20189;-72
2021/05/07 11:36:09;;;;;;;2.70;0.50;;;34.50;40.70;;;;;;5099926;28;20260;-70
2021/05/07 11:38:36;;;;;;;0.32;0.32;;;35.50;39.40;;;;;;5097194;28;20715;-71
2021/05/07 11:41:03;;;;;;;0.57;0.40;;;36.10;39.20;;;;;;5099278;28;20235;-71
2021/05/07 11:43:29;;;;;;;4.00;0.40;;;36.30;36.90;;;;;;5079524;28;20757;-71
2021/05/07 11:46:05;;;;;;;1.30;0.52;;;35.60;37.40;;;;;;5101556;28;20189;-70
2021/05/07 11:48:32;;;;;;;0.40;0.40;;;34.70;38.30;;;;;;5100554;28;20245;-71
2021/05/07 11:51:02;;;;;;;0.40;0.40;;;34.00;39.30;;;;;;5098367;28;20178;-70
2021/05/07 11:53:28;;;;;;;1.45;0.30;;;33.10;38.70;;;;;;5099003;28;20180;-70
2021/05/07 11:55:53;;;;;;;1.77;0.50;;;32.90;39.60;;;;;;5097762;28;20598;-70
2021/05/07 11:58:35;;;;;;;0.57;0.40;;;32.80;40.40;;;;;;5104349;28;20174;-71
2021/05/07 12:01:07;;;;;;;1.35;0.50;;;32.30;40.60;;;;;;5098197;28;20708;-72
2021/05/07 12:03:41;;;;;;;3.13;0.45;;;32.00;41.20;;;;;;5099050;28;20652;-71
2021/05/07 12:06:42;;;;;;;1.75;0.35;;;31.30;42.50;;;;;;5100077;28;20612;-72
2021/05/07 12:09:10;;;;;;;2.45;0.43;;;30.70;40.10;;;;;;5099552;28;20242;-72
2021/05/07 12:11:36;;;;;;;0.32;0.32;;;29.80;41.80;;;;;;5100113;28;20190;-71
2021/05/07 12:14:13;;;;;;;0.68;0.40;;;29.10;43.30;;;;;;5098218;28;20260;-71
2021/05/07 12:16:39;;;;;;;2.13;0.60;;;28.50;43.40;;;;;;5101145;28;20592;-71
2021/05/07 12:19:06;;;;;;;0.60;0.60;;;27.90;45.00;;;;;;5097833;28;20181;-70
2021/05/07 12:21:45;;;;;;;3.33;1.10;;;27.40;45.10;;;;;;5101641;28;20229;-71
2021/05/07 12:24:13;;;;;;;1.65;0.50;;;27.00;45.70;;;;;;5100409;28;20595;-71
2021/05/07 12:26:49;;;;;;;0.70;0.70;;;26.80;47.70;;;;;;5102039;28;20186;-72
2021/05/07 12:29:16;;;;;;;0.50;0.50;;;27.00;46.80;;;;;;5100141;28;20219;-71
2021/05/07 12:31:42;;;;;;;0.63;0.50;;;27.30;47.10;;;;;;5081449;28;20198;-71
2021/05/07 12:34:15;;;;;;;1.27;0.40;;;27.60;46.10;;;;;;5098519;28;20186;-71
2021/05/07 12:36:42;;;;;;;1.33;0.60;;;27.80;46.30;;;;;;5095526;28;20883;-72
2021/05/07 12:39:10;;;;;;;0.43;0.43;;;27.90;45.40;;;;;;5099912;28;20256;-71
2021/05/07 12:41:35;;;;;;;0.60;0.60;;;28.20;46.20;;;;;;5099287;28;20201;-72
2021/05/07 12:44:02;;;;;;;0.35;0.30;;;28.80;46.00;;;;;;5103236;28;20240;-72
2021/05/07 12:46:27;;;;;;;3.42;0.50;;;29.10;43.30;;;;;;5098262;28;20200;-71
2021/05/07 12:48:59;;;;;;;0.30;0.30;;;29.40;42.40;;;;;;5100726;28;20181;-72
2021/05/07 12:51:25;;;;;;;1.33;0.40;;;30.00;41.70;;;;;;5095710;28;20204;-71
2021/05/07 12:53:52;;;;;;;0.60;0.60;;;30.20;41.40;;;;;;5099969;28;21553;-72
2021/05/07 12:56:25;;;;;;;5.70;0.50;;;29.70;41.80;;;;;;5099624;28;20249;-72